Time;durP1;ratioP1;P1;durP2;ratioP2;P2;SDS_P1;SDS_P2;PMS_P1;PMS_P2;Temp;Humidity;BMP_temperature;BMP_pressure;BME280_temperature;BME280_humidity;BME280_pressure;Samples;Min_cycle;Max_cycle;Signal;HPM_P1;HPM_P2
2022/05/19 00:01:13;;;;;;;6.70;3.80;;;;;;;4.17;74.41;94461.94;5089365;28;20032;-47
2022/05/19 00:03:39;;;;;;;5.80;3.88;;;;;;;4.07;74.14;94466.78;5090475;28;20598;-47
2022/05/19 00:06:08;;;;;;;8.43;3.88;;;;;;;4.14;74.21;94471.84;5090519;28;20032;-49
2022/05/19 00:08:33;;;;;;;9.85;4.15;;;;;;;4.09;74.13;94469.06;5090386;28;20020;-49
2022/05/19 00:11:01;;;;;;;6.43;3.45;;;;;;;3.88;75.06;94454.69;5090409;28;20115;-49
2022/05/19 00:13:28;;;;;;;5.32;3.40;;;;;;;3.78;75.66;94465.03;5109065;28;20028;-48
2022/05/19 00:15:54;;;;;;;2.88;2.58;;;;;;;3.70;75.12;94461.19;5110672;28;20116;-48
2022/05/19 00:18:19;;;;;;;7.53;2.75;;;;;;;3.63;75.02;94458.91;5110404;28;20051;-46
2022/05/19 00:20:45;;;;;;;7.82;3.20;;;;;;;3.51;76.43;94464.72;5110403;28;20038;-48
2022/05/19 00:23:10;;;;;;;5.43;3.03;;;;;;;3.40;77.16;94468.03;5110286;28;20035;-49
2022/05/19 00:25:36;;;;;;;4.60;2.38;;;;;;;3.35;77.05;94470.69;5110329;28;20034;-46
2022/05/19 00:28:01;;;;;;;3.45;2.22;;;;;;;3.54;74.88;94469.19;5110483;28;20032;-46
2022/05/19 00:30:27;;;;;;;2.00;1.80;;;;;;;3.54;74.53;94466.47;5110401;28;20495;-49
2022/05/19 00:32:52;;;;;;;4.55;1.80;;;;;;;3.40;75.16;94467.31;5110212;28;20035;-47
2022/05/19 00:35:18;;;;;;;2.30;2.10;;;;;;;3.21;74.99;94477.72;5110528;28;20052;-48
2022/05/19 00:37:43;;;;;;;4.63;1.88;;;;;;;3.21;75.58;94474.22;5110525;28;20028;-48
2022/05/19 00:40:10;;;;;;;4.20;1.75;;;;;;;3.16;75.59;94472.19;5110191;28;20652;-48
2022/05/19 00:42:44;;;;;;;5.07;1.75;;;;;;;3.18;74.63;94477.94;5110247;28;20042;-50
2022/05/19 00:45:11;;;;;;;2.10;1.60;;;;;;;3.15;75.52;94474.16;5110480;28;20325;-47
2022/05/19 00:47:43;;;;;;;1.90;1.70;;;;;;;3.14;76.00;94478.09;5110483;28;20080;-47
2022/05/19 00:50:55;;;;;;;5.30;2.13;;;;;;;3.19;76.37;94476.69;5110402;28;20088;-48
2022/05/19 00:53:29;;;;;;;7.25;2.92;;;;;;;3.23;76.51;94485.44;5086684;28;20032;-49
2022/05/19 00:55:59;;;;;;;3.58;2.67;;;;;;;3.20;76.53;94457.13;5111767;28;20039;-49
2022/05/19 00:58:38;;;;;;;4.78;3.40;;;;;;;3.38;76.41;94480.69;5113687;28;20074;-47
2022/05/19 01:01:03;;;;;;;14.15;3.85;;;;;;;3.35;76.25;94481.63;5112603;28;20051;-47
2022/05/19 01:03:33;;;;;;;19.30;3.65;;;;;;;3.35;76.16;94485.09;5112803;28;20573;-47
2022/05/19 01:06:03;;;;;;;4.78;3.38;;;;;;;3.36;75.83;94488.56;5114291;28;20019;-48
2022/05/19 01:09:01;;;;;;;13.90;3.65;;;;;;;3.29;75.84;94492.44;5112471;28;20030;-46
2022/05/19 01:11:27;;;;;;;27.13;3.47;;;;;;;3.20;78.07;94484.41;5107834;27;20115;-46
2022/05/19 01:13:53;;;;;;;11.45;3.03;;;;;;;3.40;77.24;94489.88;5113809;28;20055;-47
2022/05/19 01:16:19;;;;;;;26.23;3.40;;;;;;;3.33;77.38;94487.56;5113736;28;20476;-49
2022/05/19 01:18:45;;;;;;;11.52;2.55;;;;;;;3.41;77.59;94485.16;5112585;28;20012;-47
2022/05/19 01:21:14;;;;;;;8.13;2.53;;;;;;;3.36;77.52;94492.06;5112150;28;20469;-50
2022/05/19 01:24:04;;;;;;;8.05;2.70;;;;;;;3.24;77.38;94492.38;5113296;28;20016;-48
2022/05/19 01:26:53;;;;;;;12.35;2.97;;;;;;;3.15;77.29;94489.78;5113625;28;20078;-49
2022/05/19 01:29:23;;;;;;;5.30;2.22;;;;;;;3.20;76.95;94495.31;5112211;28;20020;-47
2022/05/19 01:31:55;;;;;;;2.50;2.00;;;;;;;3.17;76.72;94492.78;5113747;28;20186;-48
2022/05/19 01:34:25;;;;;;;5.95;2.15;;;;;;;3.02;76.92;94474.50;5113003;28;20023;-49
2022/05/19 01:36:51;;;;;;;1.63;1.52;;;;;;;3.08;76.03;94471.81;5111725;28;20067;-48
2022/05/19 01:39:23;;;;;;;12.75;4.40;;;;;;;3.10;76.55;94487.75;5113236;28;20039;-47
2022/05/19 01:42:07;;;;;;;9.38;4.32;;;;;;;3.22;76.86;94487.41;5113296;28;20024;-46
2022/05/19 01:45:09;;;;;;;4.95;3.25;;;;;;;3.16;75.80;94491.28;5113172;28;20032;-47
2022/05/19 01:47:44;;;;;;;2.85;2.38;;;;;;;3.15;75.12;94487.03;5113134;28;20153;-46
2022/05/19 01:50:21;;;;;;;2.08;1.83;;;;;;;3.05;76.17;94489.91;5113091;28;20054;-50
2022/05/19 01:52:52;;;;;;;2.42;1.88;;;;;;;3.15;75.95;94487.03;5113021;28;20080;-47
2022/05/19 01:55:35;;;;;;;2.03;1.63;;;;;;;3.09;76.17;94492.44;5111590;28;20019;-48
2022/05/19 01:58:08;;;;;;;2.45;1.70;;;;;;;3.10;76.46;94490.47;5096552;28;20059;-49
2022/05/19 02:00:34;;;;;;;2.47;2.00;;;;;;;2.92;76.70;94497.63;5092222;28;20027;-47
2022/05/19 02:03:11;;;;;;;2.10;1.80;;;;;;;2.63;77.38;94494.97;5091278;28;20024;-48
2022/05/19 02:05:59;;;;;;;3.13;1.83;;;;;;;2.77;76.44;94491.47;5108165;28;20037;-49
2022/05/19 02:08:30;;;;;;;2.45;1.65;;;;;;;2.63;76.93;94500.44;5112699;28;20498;-51
2022/05/19 02:10:59;;;;;;;5.57;1.98;;;;;;;2.57;77.21;94498.84;5112712;28;20104;-49
2022/05/19 02:13:25;;;;;;;2.65;1.70;;;;;;;2.50;78.42;94499.97;5112303;28;20070;-48
2022/05/19 02:15:53;;;;;;;2.90;1.98;;;;;;;2.68;78.38;94509.91;5112233;28;20031;-48
2022/05/19 02:18:21;;;;;;;6.57;2.28;;;;;;;2.51;78.00;94487.09;5111325;28;20019;-47
2022/05/19 02:20:47;;;;;;;3.43;2.03;;;;;;;2.43;79.42;94505.78;5112284;28;20513;-49
2022/05/19 02:23:14;;;;;;;3.03;1.52;;;;;;;2.51;78.94;94501.50;5111208;28;20051;-49
2022/05/19 02:25:45;;;;;;;2.63;2.00;;;;;;;2.51;79.77;94503.44;5112433;28;20034;-49
2022/05/19 02:28:30;;;;;;;5.85;1.80;;;;;;;2.73;79.59;94501.81;5112266;28;20416;-47
2022/05/19 02:30:56;;;;;;;1.73;1.55;;;;;;;2.50;79.50;94480.13;5110844;28;20081;-50
2022/05/19 02:33:21;;;;;;;2.67;2.10;;;;;;;2.60;78.88;94482.28;5111878;28;20075;-47
2022/05/19 02:35:47;;;;;;;2.92;2.00;;;;;;;2.79;79.17;94499.94;5112256;28;20112;-48
2022/05/19 02:38:13;;;;;;;1.80;1.70;;;;;;;2.68;79.31;94513.41;5111762;28;20089;-48
2022/05/19 02:40:39;;;;;;;3.08;1.73;;;;;;;2.87;79.08;94505.75;5112073;28;20103;-47
2022/05/19 02:43:06;;;;;;;3.47;1.63;;;;;;;2.87;78.36;94506.50;5111746;28;20150;-48
2022/05/19 02:45:32;;;;;;;2.03;1.83;;;;;;;2.91;78.02;94512.50;5111932;28;20023;-49
2022/05/19 02:47:58;;;;;;;2.42;1.65;;;;;;;2.94;77.74;94502.63;5111626;28;20032;-48
2022/05/19 02:50:24;;;;;;;2.20;1.40;;;;;;;2.72;77.54;94505.78;5111614;28;20023;-47
2022/05/19 02:52:49;;;;;;;2.30;1.45;;;;;;;2.72;78.24;94503.06;5111609;28;20077;-47
2022/05/19 02:55:16;;;;;;;1.55;1.30;;;;;;;2.81;77.53;94505.69;5111514;28;20057;-47
2022/05/19 02:57:42;;;;;;;3.88;1.48;;;;;;;2.79;76.76;94510.09;5111183;27;20480;-49
2022/05/19 03:00:14;;;;;;;2.22;1.92;;;;;;;2.56;78.59;94513.69;5111699;28;20468;-50
2022/05/19 03:02:41;;;;;;;2.05;1.85;;;;;;;2.33;79.01;94501.66;5111755;28;20152;-47
2022/05/19 03:05:08;;;;;;;2.95;1.48;;;;;;;2.50;78.38;94516.31;5111360;28;20606;-47
2022/05/19 03:07:34;;;;;;;1.52;1.42;;;;;;;2.62;77.95;94509.81;5111256;28;20034;-46
2022/05/19 03:09:59;;;;;;;2.90;1.63;;;;;;;2.71;77.50;94506.22;5111307;28;20023;-48
2022/05/19 03:12:25;;;;;;;4.13;2.00;;;;;;;2.52;78.31;94513.13;5111215;28;20470;-50
2022/05/19 03:14:50;;;;;;;2.17;1.95;;;;;;;2.60;78.24;94512.25;5111244;28;20019;-47
2022/05/19 03:17:16;;;;;;;2.50;1.60;;;;;;;2.54;77.47;94518.84;5111153;28;20027;-47
2022/05/19 03:19:41;;;;;;;2.05;1.67;;;;;;;2.65;77.98;94519.03;5111078;28;20020;-47
2022/05/19 03:22:07;;;;;;;2.30;2.00;;;;;;;2.55;78.36;94520.38;5111046;27;20484;-47
2022/05/19 03:24:32;;;;;;;2.47;1.60;;;;;;;2.41;79.31;94518.38;5111308;28;20024;-48
2022/05/19 03:26:58;;;;;;;9.52;5.40;;;;;;;2.50;78.99;94518.28;5111352;28;20461;-47
2022/05/19 03:29:23;;;;;;;4.80;2.65;;;;;;;2.72;78.37;94529.56;5111084;28;20093;-49
2022/05/19 03:31:49;;;;;;;4.78;3.00;;;;;;;2.78;78.78;94525.69;5110956;28;20179;-47
2022/05/19 03:34:17;;;;;;;3.40;2.75;;;;;;;2.80;79.37;94523.25;5110781;28;20031;-46
2022/05/19 03:36:44;;;;;;;3.80;2.80;;;;;;;2.87;78.54;94528.31;5110819;28;20423;-49
2022/05/19 03:39:10;;;;;;;2.13;1.92;;;;;;;2.96;78.04;94532.91;5111153;28;20027;-47
2022/05/19 03:41:36;;;;;;;2.05;1.85;;;;;;;2.99;77.69;94527.25;5110726;28;20042;-47
2022/05/19 03:44:01;;;;;;;2.22;1.70;;;;;;;2.72;77.21;94505.78;5110748;28;20240;-49
2022/05/19 03:46:27;;;;;;;2.00;1.60;;;;;;;2.98;77.51;94538.66;5110685;28;20028;-47
2022/05/19 03:48:53;;;;;;;7.18;2.22;;;;;;;2.89;78.25;94542.25;5110586;28;20034;-48
2022/05/19 03:51:26;;;;;;;15.90;2.97;;;;;;;2.97;79.69;94537.13;5110665;28;20111;-48
2022/05/19 03:53:52;;;;;;;37.28;3.45;;;;;;;3.04;79.26;94545.69;5110913;28;20031;-46
2022/05/19 03:56:18;;;;;;;21.00;3.47;;;;;;;3.20;80.50;94554.59;5110219;28;20027;-47
2022/05/19 03:58:44;;;;;;;30.00;4.22;;;;;;;3.30;81.47;94553.25;5110373;28;20043;-46
2022/05/19 04:01:09;;;;;;;21.17;2.58;;;;;;;3.47;80.19;94551.50;5110892;28;20028;-50
2022/05/19 04:03:35;;;;;;;15.93;3.53;;;;;;;3.50;80.64;94564.97;5110861;28;20537;-47
2022/05/19 04:06:00;;;;;;;24.67;2.65;;;;;;;3.62;80.32;94561.16;5110536;28;20462;-47
2022/05/19 04:08:26;;;;;;;74.40;6.80;;;;;;;3.81;80.43;94556.19;5110723;28;20020;-47
2022/05/19 04:10:51;;;;;;;45.75;5.15;;;;;;;3.92;79.96;94564.50;5110780;28;20504;-48
2022/05/19 04:13:17;;;;;;;10.50;3.47;;;;;;;4.10;79.98;94564.22;5110766;28;20030;-50
2022/05/19 04:15:42;;;;;;;22.85;2.95;;;;;;;4.30;79.21;94566.19;5110677;28;20020;-50
2022/05/19 04:18:08;;;;;;;28.23;3.40;;;;;;;4.53;78.40;94568.66;5110418;28;20493;-50
2022/05/19 04:20:33;;;;;;;5.78;2.28;;;;;;;4.71;77.88;94566.81;5110406;28;20032;-47
2022/05/19 04:23:00;;;;;;;5.47;2.70;;;;;;;4.87;77.12;94566.25;5110705;28;20024;-47
2022/05/19 04:25:26;;;;;;;10.35;3.22;;;;;;;5.05;75.78;94557.66;5110307;28;20081;-47
2022/05/19 04:27:51;;;;;;;25.55;7.25;;;;;;;5.19;74.68;94565.75;5110545;28;20024;-50
2022/05/19 04:30:17;;;;;;;20.15;7.07;;;;;;;5.17;73.43;94546.34;5110942;28;20469;-46
2022/05/19 04:32:43;;;;;;;17.58;6.25;;;;;;;5.36;73.84;94572.09;5114285;28;20027;-47
2022/05/19 04:35:09;;;;;;;6.25;3.10;;;;;;;5.46;74.49;94566.44;5114286;28;20035;-48
2022/05/19 04:37:34;;;;;;;19.65;4.70;;;;;;;5.50;73.01;94577.91;5114332;28;20027;-48
2022/05/19 04:40:01;;;;;;;12.60;5.07;;;;;;;5.50;73.83;94567.69;5114176;28;20027;-48
2022/05/19 04:42:27;;;;;;;10.02;5.38;;;;;;;5.52;73.16;94548.78;5114423;28;20076;-47
2022/05/19 04:44:56;;;;;;;16.60;3.58;;;;;;;5.70;74.23;94575.78;5114388;28;20031;-49
2022/05/19 04:47:22;;;;;;;10.02;2.35;;;;;;;5.77;73.36;94572.59;5114350;28;20239;-47
2022/05/19 04:49:47;;;;;;;12.90;2.95;;;;;;;5.81;73.92;94558.66;5113966;28;20068;-48
2022/05/19 04:52:12;;;;;;;3.80;2.83;;;;;;;5.93;73.87;94557.50;5113892;28;20031;-48
2022/05/19 04:54:38;;;;;;;3.42;2.30;;;;;;;5.99;73.25;94567.25;5095473;28;20031;-47
2022/05/19 04:57:04;;;;;;;5.10;2.35;;;;;;;6.04;73.58;94569.25;5097629;28;20089;-47
2022/05/19 04:59:31;;;;;;;6.63;2.72;;;;;;;6.06;74.07;94566.75;5093294;28;20040;-51
2022/05/19 05:01:56;;;;;;;17.35;1.95;;;;;;;6.33;73.23;94567.34;5093356;28;20505;-48
2022/05/19 05:04:23;;;;;;;7.43;1.58;;;;;;;6.49;72.29;94572.16;5093172;28;20066;-47
2022/05/19 05:06:48;;;;;;;13.88;1.90;;;;;;;6.56;70.95;94577.16;5092427;28;20059;-48
2022/05/19 05:09:14;;;;;;;4.38;1.80;;;;;;;6.35;71.72;94573.84;5093361;28;20024;-48
2022/05/19 05:11:41;;;;;;;6.82;1.60;;;;;;;6.45;71.83;94571.66;5093271;28;20410;-47
2022/05/19 05:14:08;;;;;;;5.40;2.17;;;;;;;6.52;71.54;94568.44;5093103;28;20024;-49
2022/05/19 05:16:33;;;;;;;2.58;1.58;;;;;;;6.73;71.94;94566.97;5093358;28;20016;-50
2022/05/19 05:18:59;;;;;;;3.72;1.83;;;;;;;7.04;72.13;94572.22;5093362;28;20084;-47
2022/05/19 05:21:24;;;;;;;1.85;1.65;;;;;;;7.57;70.26;94565.72;5092953;28;20467;-48
2022/05/19 05:23:50;;;;;;;4.50;1.98;;;;;;;8.40;68.45;94573.75;5093268;28;20052;-48
2022/05/19 05:26:15;;;;;;;2.15;1.60;;;;;;;9.15;65.25;94569.53;5093152;28;20050;-47
2022/05/19 05:28:41;;;;;;;1.95;1.60;;;;;;;9.62;63.51;94557.09;5093078;28;20543;-51
2022/05/19 05:31:07;;;;;;;3.63;1.52;;;;;;;10.00;63.35;94569.03;5093125;28;20027;-48
2022/05/19 05:33:32;;;;;;;1.55;1.45;;;;;;;10.30;63.37;94569.72;5092739;28;20378;-47
2022/05/19 05:35:58;;;;;;;3.10;1.80;;;;;;;10.27;62.84;94572.75;5092748;28;20032;-49
2022/05/19 05:38:24;;;;;;;3.28;1.90;;;;;;;10.33;62.50;94574.16;5092642;28;20024;-48
2022/05/19 05:40:50;;;;;;;2.85;1.50;;;;;;;10.48;62.33;94582.03;5092624;28;20039;-51
2022/05/19 05:43:18;;;;;;;1.92;1.45;;;;;;;10.57;62.02;94582.41;5092486;28;20028;-49
2022/05/19 05:45:45;;;;;;;1.67;1.40;;;;;;;10.68;61.83;94578.75;5092839;28;20051;-47
2022/05/19 05:48:11;;;;;;;4.38;1.60;;;;;;;10.80;62.05;94576.59;5092648;28;20098;-49
2022/05/19 05:50:37;;;;;;;2.20;1.70;;;;;;;10.85;61.42;94562.69;5092780;28;20055;-48
2022/05/19 05:53:03;;;;;;;1.80;1.50;;;;;;;11.46;60.59;94575.59;5092608;28;20475;-49
2022/05/19 05:55:29;;;;;;;2.17;1.30;;;;;;;12.45;56.62;94572.34;5092347;28;20028;-49
2022/05/19 05:57:54;;;;;;;1.50;1.40;;;;;;;13.15;54.60;94570.59;5106638;28;20066;-47
2022/05/19 06:00:20;;;;;;;1.50;1.30;;;;;;;13.43;52.87;94565.91;5112931;28;20656;-49
2022/05/19 06:02:46;;;;;;;2.53;1.60;;;;;;;13.42;54.39;94572.00;5112641;28;20031;-47
2022/05/19 06:05:12;;;;;;;5.75;2.58;;;;;;;13.30;52.32;94576.31;5112446;28;20031;-49
2022/05/19 06:07:39;;;;;;;3.33;2.55;;;;;;;13.49;53.65;94574.84;5112792;28;20027;-49
2022/05/19 06:10:05;;;;;;;8.70;2.50;;;;;;;13.60;51.73;94566.25;5112542;28;20386;-48
2022/05/19 06:12:30;;;;;;;3.60;1.92;;;;;;;13.65;51.88;94578.50;5112667;28;20023;-51
2022/05/19 06:14:56;;;;;;;5.60;2.20;;;;;;;13.59;51.85;94577.91;5112565;27;20027;-49
2022/05/19 06:17:23;;;;;;;2.45;1.65;;;;;;;13.44;53.87;94569.44;5112574;28;20035;-47
2022/05/19 06:19:50;;;;;;;2.53;1.70;;;;;;;13.89;53.22;94577.41;5112270;28;20030;-47
2022/05/19 06:22:16;;;;;;;2.00;1.73;;;;;;;14.07;52.96;94574.41;5112390;28;20027;-50
2022/05/19 06:24:41;;;;;;;5.18;1.60;;;;;;;14.40;52.30;94581.16;5112445;28;20031;-48
2022/05/19 06:27:07;;;;;;;1.60;1.50;;;;;;;14.39;52.30;94576.88;5112407;28;20407;-48
2022/05/19 06:29:32;;;;;;;4.75;1.95;;;;;;;14.45;52.60;94588.56;5111939;28;20038;-51
2022/05/19 06:31:58;;;;;;;3.78;2.63;;;;;;;14.63;51.68;94578.47;5112339;28;20032;-48
2022/05/19 06:34:24;;;;;;;3.85;2.80;;;;;;;14.90;53.25;94574.88;5111856;28;20036;-50
2022/05/19 06:36:49;;;;;;;6.75;2.95;;;;;;;15.04;51.33;94583.84;5112290;28;20020;-48
2022/05/19 06:39:17;;;;;;;3.92;2.38;;;;;;;15.25;53.58;94581.69;5111756;28;20524;-51
2022/05/19 06:42:02;;;;;;;6.67;3.40;;;;;;;15.47;50.28;94566.38;5112086;28;20027;-50
2022/05/19 06:44:37;;;;;;;2.50;2.05;;;;;;;16.28;48.58;94589.25;5112108;28;20036;-49
2022/05/19 06:47:06;;;;;;;3.28;1.50;;;;;;;16.84;47.45;94582.47;5111718;28;20032;-49
2022/05/19 06:49:31;;;;;;;3.22;1.98;;;;;;;16.95;47.47;94564.56;5111742;28;20397;-49
2022/05/19 06:51:57;;;;;;;1.92;1.38;;;;;;;17.15;46.97;94571.94;5111920;28;20031;-48
2022/05/19 06:54:23;;;;;;;1.77;1.38;;;;;;;17.29;45.43;94573.91;5111063;28;20058;-49
2022/05/19 06:56:48;;;;;;;12.00;2.15;;;;;;;17.92;46.33;94577.25;5111201;28;20062;-50
2022/05/19 06:59:17;;;;;;;4.80;1.30;;;;;;;18.50;45.30;94580.69;5111269;28;20097;-48
2022/05/19 07:01:45;;;;;;;2.33;1.30;;;;;;;19.36;41.47;94570.25;5111782;28;20102;-48
2022/05/19 07:04:10;;;;;;;3.75;1.10;;;;;;;19.64;41.16;94575.28;5111691;28;20081;-51
2022/05/19 07:06:36;;;;;;;7.60;1.88;;;;;;;19.79;41.08;94585.53;5111307;28;20024;-49
2022/05/19 07:09:01;;;;;;;3.90;1.10;;;;;;;20.31;39.64;94581.19;5111501;28;20039;-48
2022/05/19 07:11:27;;;;;;;9.90;1.30;;;;;;;20.94;38.84;94587.31;5111193;28;20640;-51
2022/05/19 07:14:02;;;;;;;3.15;1.23;;;;;;;21.83;36.29;94583.28;5111585;28;20050;-51
2022/05/19 07:16:28;;;;;;;2.35;1.20;;;;;;;22.51;34.87;94573.22;5111153;28;20085;-50
2022/05/19 07:20:43;;;;;;;5.30;1.10;;;;;;;23.70;31.35;94583.91;5111117;28;20059;-50
2022/05/19 07:21:42;;;;;;;6.63;1.10;;;;;;;24.79;31.55;94588.56;5111247;28;20088;-50
2022/05/19 07:24:14;;;;;;;2.85;1.38;;;;;;;26.10;28.88;94589.69;5111327;28;20024;-48
2022/05/19 07:26:41;;;;;;;2.40;0.82;;;;;;;26.75;27.97;94585.38;5111146;28;20031;-47
2022/05/19 07:29:07;;;;;;;5.28;1.13;;;;;;;27.68;26.86;94585.13;5111182;28;20050;-46
2022/05/19 07:31:32;;;;;;;2.25;1.23;;;;;;;28.78;25.40;94581.06;5111236;28;20503;-49
2022/05/19 07:33:57;;;;;;;1.13;0.90;;;;;;;28.80;24.55;94581.16;5110967;28;20080;-49
2022/05/19 07:36:23;;;;;;;7.00;1.30;;;;;;;29.34;23.97;94579.94;5111137;28;20031;-49
2022/05/19 07:38:48;;;;;;;2.75;1.10;;;;;;;29.89;23.07;94577.22;5111178;28;20020;-46
2022/05/19 07:41:14;;;;;;;1.02;0.80;;;;;;;30.23;22.49;94575.72;5111073;28;20023;-50
2022/05/19 07:43:41;;;;;;;0.98;0.90;;;;;;;30.92;21.69;94579.06;5111147;28;20533;-46
2022/05/19 07:46:08;;;;;;;1.98;1.00;;;;;;;31.06;21.57;94579.56;5110750;28;20036;-46
2022/05/19 07:48:35;;;;;;;1.15;0.82;;;;;;;30.84;20.27;94584.44;5110595;28;20031;-50
2022/05/19 07:51:02;;;;;;;2.35;1.38;;;;;;;30.48;22.09;94583.09;5111085;28;20028;-47
2022/05/19 07:53:28;;;;;;;1.83;0.85;;;;;;;31.05;21.36;94580.97;5110625;28;20024;-49
2022/05/19 07:55:54;;;;;;;2.92;1.20;;;;;;;31.25;21.06;94573.09;5110977;28;20046;-49
2022/05/19 07:58:20;;;;;;;5.68;1.33;;;;;;;31.08;21.14;94576.75;5110090;28;20052;-50
2022/05/19 08:00:46;;;;;;;1.75;1.00;;;;;;;31.37;22.02;94578.47;5110837;28;20027;-47
2022/05/19 08:03:12;;;;;;;2.90;1.17;;;;;;;31.83;19.11;94574.34;5110873;28;20038;-49
2022/05/19 08:05:38;;;;;;;4.60;1.00;;;;;;;31.42;20.99;94580.81;5113609;28;20501;-46
2022/05/19 08:08:04;;;;;;;5.45;1.05;;;;;;;31.79;20.05;94585.66;5115027;27;20051;-50
2022/05/19 08:10:29;;;;;;;1.40;1.10;;;;;;;32.44;19.76;94579.13;5114751;28;20412;-50
2022/05/19 08:15:44;;;;;;;2.55;1.00;;;;;;;32.60;19.55;94577.47;5114996;28;20035;-49
2022/05/19 08:18:15;;;;;;;3.00;1.10;;;;;;;32.78;20.12;94577.28;5113708;28;20031;-49
2022/05/19 08:20:44;;;;;;;1.17;0.88;;;;;;;32.33;18.79;94572.38;5114947;28;20027;-50
2022/05/19 08:23:14;;;;;;;2.13;0.70;;;;;;;32.34;20.39;94570.94;5114803;28;20031;-51
2022/05/19 08:25:40;;;;;;;13.63;1.95;;;;;;;32.46;18.45;94562.75;5114860;28;20031;-49
2022/05/19 08:28:06;;;;;;;4.93;1.13;;;;;;;32.00;19.54;94575.63;5114571;28;20390;-46
2022/05/19 08:30:32;;;;;;;3.10;1.08;;;;;;;32.72;19.63;94572.13;5114671;28;20030;-49
2022/05/19 08:32:57;;;;;;;1.30;0.85;;;;;;;33.13;18.21;94570.41;5114515;28;20023;-50
2022/05/19 08:35:23;;;;;;;3.67;0.98;;;;;;;32.96;18.91;94565.63;5113021;28;20019;-48
2022/05/19 08:37:49;;;;;;;4.78;1.00;;;;;;;33.06;18.07;94574.50;5114592;28;20038;-48
2022/05/19 08:40:17;;;;;;;3.20;0.77;;;;;;;33.63;18.21;94574.63;5114395;28;20038;-50
2022/05/19 08:42:47;;;;;;;6.40;1.08;;;;;;;33.03;17.97;94570.16;5114174;28;20032;-50
2022/05/19 08:45:22;;;;;;;1.17;0.88;;;;;;;33.47;17.88;94568.44;5114392;28;20042;-49
2022/05/19 08:47:50;;;;;;;4.00;0.80;;;;;;;32.55;16.02;94566.59;5112882;28;20145;-47
2022/05/19 08:50:27;;;;;;;1.10;1.00;;;;;;;32.64;17.56;94563.28;5114210;28;20034;-51
2022/05/19 08:52:53;;;;;;;2.08;1.20;;;;;;;32.82;16.03;94555.25;5113970;28;20444;-50
2022/05/19 08:55:18;;;;;;;2.03;0.90;;;;;;;33.24;18.03;94558.56;5113018;28;20027;-51
2022/05/19 08:58:01;;;;;;;1.00;0.90;;;;;;;33.69;17.94;94554.00;5113207;28;20027;-48
2022/05/19 09:00:33;;;;;;;2.88;0.85;;;;;;;34.00;15.97;94542.56;5112550;28;20024;-49
2022/05/19 09:03:17;;;;;;;1.45;0.90;;;;;;;33.84;16.14;94547.19;5112941;28;20093;-46
2022/05/19 09:06:01;;;;;;;1.77;0.90;;;;;;;34.17;15.43;94550.19;5113946;28;20055;-51
2022/05/19 09:08:44;;;;;;;2.75;0.80;;;;;;;33.43;13.51;94548.31;5113524;28;20118;-50
2022/05/19 09:11:12;;;;;;;4.50;1.10;;;;;;;33.07;15.25;94548.06;5113585;28;20111;-48
2022/05/19 09:14:00;;;;;;;11.93;2.47;;;;;;;32.99;15.22;94545.00;5112712;28;20081;-48
2022/05/19 09:16:31;;;;;;;1.10;0.70;;;;;;;32.33;17.25;94545.91;5113013;28;20468;-51
2022/05/19 09:19:10;;;;;;;1.85;1.00;;;;;;;32.28;15.25;94547.19;5113694;28;20019;-49
2022/05/19 09:21:38;;;;;;;2.80;0.57;;;;;;;31.35;16.13;94547.75;5112201;28;20028;-49
2022/05/19 09:24:05;;;;;;;1.20;0.52;;;;;;;31.99;16.65;94545.56;5112124;28;20051;-46
2022/05/19 09:26:53;;;;;;;15.93;0.90;;;;;;;31.71;16.25;94541.78;5113361;28;20059;-50
2022/05/19 09:29:35;;;;;;;0.98;0.73;;;;;;;31.68;16.42;94534.56;5113497;28;20027;-48
2022/05/19 09:32:06;;;;;;;5.80;0.70;;;;;;;32.33;17.23;94529.50;5113545;28;20035;-49
2022/05/19 09:34:34;;;;;;;0.80;0.50;;;;;;;32.75;15.90;94530.72;5113478;28;20070;-51
2022/05/19 09:37:11;;;;;;;1.02;0.40;;;;;;;32.45;13.31;94538.41;5113470;28;20031;-49
2022/05/19 09:40:12;;;;;;;0.70;0.50;;;;;;;32.28;16.33;94530.03;5112991;28;20035;-49
2022/05/19 09:43:06;;;;;;;6.05;2.75;;;;;;;32.31;16.09;94538.00;5099141;28;20040;-48
2022/05/19 09:45:38;;;;;;;1.20;0.70;;;;;;;31.57;17.34;94535.63;5104607;28;20425;-50
2022/05/19 09:48:08;;;;;;;8.88;1.45;;;;;;;31.33;18.25;94541.25;5112852;27;20681;-48
2022/05/19 09:50:43;;;;;;;13.98;1.60;;;;;;;30.97;17.43;94537.88;5113248;28;20027;-47
2022/05/19 09:53:17;;;;;;;1.35;0.57;;;;;;;31.17;15.92;94530.00;5113127;28;20439;-49
2022/05/19 09:55:43;;;;;;;8.63;0.70;;;;;;;30.65;17.33;94528.88;5112823;28;20489;-48
2022/05/19 09:58:13;;;;;;;3.92;0.60;;;;;;;31.16;17.42;94528.56;5112108;28;20539;-50
2022/05/19 10:00:56;;;;;;;2.58;0.50;;;;;;;30.95;15.50;94529.25;5112895;28;20030;-50
2022/05/19 10:03:26;;;;;;;2.13;0.60;;;;;;;30.01;17.21;94531.41;5111483;28;20076;-50
2022/05/19 10:05:57;;;;;;;1.13;1.00;;;;;;;30.41;17.67;94527.25;5111377;28;20126;-51
2022/05/19 10:08:39;;;;;;;3.22;0.70;;;;;;;30.87;17.13;94519.66;5112449;28;21927;-48
2022/05/19 10:11:13;;;;;;;0.40;0.40;;;;;;;30.58;17.34;94517.94;5112424;28;20123;-50
2022/05/19 10:13:56;;;;;;;4.20;0.70;;;;;;;30.65;15.96;94513.88;5111225;28;20074;-48
2022/05/19 10:17:10;;;;;;;1.40;0.57;;;;;;;30.68;18.26;94496.22;5112364;28;20031;-49
2022/05/19 10:19:39;;;;;;;4.22;0.75;;;;;;;30.31;17.97;94512.63;5111397;28;20030;-49
2022/05/19 10:22:22;;;;;;;2.10;0.57;;;;;;;30.81;17.81;94511.63;5112545;28;20032;-49
2022/05/19 10:25:09;;;;;;;2.05;0.68;;;;;;;30.02;17.95;94516.50;5112481;28;20034;-49
2022/05/19 10:33:32;;;;;;;0.63;0.45;;;;;;;29.84;17.74;94499.44;5111054;28;20039;-51
2022/05/19 10:36:25;;;;;;;0.93;0.60;;;;;;;30.24;16.72;94499.53;5111813;28;20023;-49
2022/05/19 10:39:10;;;;;;;13.30;2.13;;;;;;;30.46;16.26;94509.66;5111046;28;20034;-49
2022/05/19 10:42:00;;;;;;;1.23;0.55;;;;;;;30.79;17.38;94500.16;5112104;28;20102;-49
2022/05/19 10:44:50;;;;;;;3.08;0.90;;;;;;;30.62;16.84;94501.69;5111796;28;20114;-49
2022/05/19 10:47:39;;;;;;;3.70;0.82;;;;;;;30.63;17.73;94505.25;5111660;28;20034;-49
2022/05/19 10:50:28;;;;;;;1.60;1.15;;;;;;;29.64;17.55;94498.66;5110768;28;20024;-45
2022/05/19 10:53:11;;;;;;;3.85;2.05;;;;;;;29.61;16.01;94505.63;5109291;28;20028;-49
2022/05/19 10:55:56;;;;;;;5.60;0.90;;;;;;;29.34;16.69;94500.28;5111561;28;20027;-48
2022/05/19 10:58:59;;;;;;;2.78;1.50;;;;;;;28.76;18.94;94509.91;5110968;28;20043;-47
2022/05/19 11:01:48;;;;;;;5.25;1.42;;;;;;;29.12;17.62;94505.75;5111418;28;20585;-49
2022/05/19 11:04:19;;;;;;;6.00;1.52;;;;;;;28.08;18.79;94490.53;5111692;28;20036;-49
2022/05/19 11:07:10;;;;;;;1.30;0.80;;;;;;;27.66;18.18;94485.72;5111323;28;20581;-50
2022/05/19 11:10:01;;;;;;;4.22;1.02;;;;;;;27.14;19.60;94495.25;5111299;28;20118;-50
2022/05/19 11:12:30;;;;;;;1.60;1.20;;;;;;;26.63;19.07;94482.75;5107011;28;20035;-49
2022/05/19 11:15:05;;;;;;;4.18;2.10;;;;;;;25.95;18.14;94485.53;5111250;28;20032;-51
2022/05/19 11:17:55;;;;;;;5.95;3.80;;;;;;;24.80;21.37;94493.25;5111193;28;20062;-49
2022/05/19 11:20:24;;;;;;;6.00;1.70;;;;;;;24.34;21.81;94499.72;5111091;28;20085;-49
2022/05/19 11:23:03;;;;;;;4.72;2.40;;;;;;;23.81;22.58;94483.75;5111393;28;20490;-49
2022/05/19 11:28:31;;;;;;;6.38;2.30;;;;;;;23.48;22.25;94485.91;5110209;28;20042;-50
2022/05/19 11:31:02;;;;;;;5.80;1.23;;;;;;;23.24;21.85;94482.25;5109852;28;20058;-48
2022/05/19 11:33:33;;;;;;;3.50;1.55;;;;;;;23.29;21.78;94476.28;5109741;28;20047;-49
2022/05/19 11:36:03;;;;;;;3.38;2.03;;;;;;;23.31;23.04;94472.84;5110017;28;20463;-51
2022/05/19 11:38:41;;;;;;;2.00;1.17;;;;;;;23.23;23.70;94461.81;5111141;28;20041;-49
2022/05/19 11:41:14;;;;;;;3.67;2.58;;;;;;;23.01;25.34;94460.41;5109424;28;20092;-51
2022/05/19 11:44:05;;;;;;;2.35;1.85;;;;;;;22.71;26.16;94454.91;5109901;28;20023;-50
2022/05/19 11:46:34;;;;;;;3.10;2.42;;;;;;;22.48;23.01;94449.88;5109957;28;20427;-51
2022/05/19 11:55:18;;;;;;;4.60;1.20;;;;;;;22.13;25.99;94444.03;5077716;28;20103;-50
2022/05/19 11:58:01;;;;;;;1.65;1.20;;;;;;;22.01;24.73;94440.41;5096094;28;20381;-50
2022/05/19 12:00:37;;;;;;;2.33;1.33;;;;;;;22.08;27.66;94442.28;5089253;28;20494;-49
2022/05/19 12:03:46;;;;;;;4.57;0.95;;;;;;;22.14;27.68;94442.69;5087971;28;20046;-48
2022/05/19 12:06:17;;;;;;;7.15;1.52;;;;;;;22.20;27.75;94440.28;5031147;28;20025;-52
2022/05/19 12:08:59;;;;;;;1.50;0.93;;;;;;;22.26;27.11;94437.88;5047650;28;20041;-49
2022/05/19 12:11:56;;;;;;;1.70;0.93;;;;;;;22.16;27.74;94433.63;5074815;28;20169;-50